Cape Hatteras, North Carolina
Current Conditions -  °F | °C
As of 12:51 AM on Saturday 25 Oct 2014 (Local Time) from KHSE Reporting Station
Clear Clear  
Wind Chill: 59°   Ceiling: Unl
Heat Index: 59°   Visibility: 10mi
Dew Point: 53°   Wind: 5mph
Humidity: 81%   Direction: 330°NNW
Pressure: 29.96"   Gusts: NA
Location:  35.23°N, 75.62°W
Report Text: KHSE 250451Z AUTO 33004KT 10SM CLR 15/12 A2996 RMK AO2 SLP144 T01500117 401890133 TSNO
Loading
Personal Weather Stations






























Interactive Weather Map
Tropical Storm Tracking
New forecast layout! Learn more

10-Day Weather Forecast

Advertisements
Track Severe Weather on mobile